Time;durP1;ratioP1;P1;durP2;ratioP2;P2;SDS_P1;SDS_P2;PMS_P1;PMS_P2;Temp;Humidity;BMP_temperature;BMP_pressure;BME280_temperature;BME280_humidity;BME280_pressure;Samples;Min_cycle;Max_cycle;Signal;HPM_P1;HPM_P2
2022/05/14 00:00:24;;;;;;;7.78;4.18;;;;;;;18.81;nan;100468.91;4984582;28;20061;-73
2022/05/14 00:02:50;;;;;;;7.53;3.92;;;;;;;18.80;nan;100502.03;4983135;28;20030;-72
2022/05/14 00:05:20;;;;;;;6.65;4.00;;;;;;;18.77;nan;100487.38;4988822;28;20042;-73
2022/05/14 00:07:46;;;;;;;8.48;4.13;;;;;;;18.70;nan;100535.66;4973126;28;20045;-73
2022/05/14 00:10:13;;;;;;;7.43;4.10;;;;;;;18.59;nan;100544.00;4981473;28;20030;-74
2022/05/14 00:15:22;;;;;;;7.70;3.63;;;;;;;18.49;nan;100459.50;4979266;28;20034;-67
2022/05/14 00:17:48;;;;;;;5.40;3.60;;;;;;;18.47;nan;100446.44;4973156;28;20038;-66
2022/05/14 00:20:15;;;;;;;6.55;3.30;;;;;;;18.42;nan;100409.16;4992779;28;20053;-66
2022/05/14 00:22:41;;;;;;;4.00;3.10;;;;;;;18.42;nan;100475.00;4971434;28;20076;-66
2022/05/14 00:25:07;;;;;;;5.00;3.10;;;;;;;18.37;nan;100461.72;4992252;28;20561;-67
2022/05/14 00:27:32;;;;;;;9.10;3.33;;;;;;;;;;4993886;28;20038;-66
2022/05/14 00:29:58;;;;;;;4.78;3.00;;;;;;;18.35;nan;100504.63;4991958;28;20062;-66
2022/05/14 00:32:24;;;;;;;4.70;2.95;;;;;;;;;;5000641;28;20044;-66
2022/05/14 00:34:50;;;;;;;3.55;2.90;;;;;;;18.26;nan;100499.06;4996390;28;20068;-67
2022/05/14 00:37:16;;;;;;;4.50;3.17;;;;;;;18.12;nan;100454.63;4992031;28;20041;-66
2022/05/14 00:39:42;;;;;;;5.10;3.20;;;;;;;18.07;nan;100498.06;4999849;28;20400;-66
2022/05/14 00:42:08;;;;;;;5.63;2.80;;;;;;;17.97;nan;100554.88;4979675;28;20035;-65
2022/05/14 00:44:33;;;;;;;5.53;3.40;;;;;;;17.97;nan;100508.78;4995797;28;20443;-66
2022/05/14 00:47:00;;;;;;;7.10;3.15;;;;;;;;;;4997323;28;20077;-66
2022/05/14 00:49:27;;;;;;;9.27;3.60;;;;;;;17.94;nan;100512.78;4994785;28;20125;-66
2022/05/14 00:51:53;;;;;;;6.15;3.33;;;;;;;17.80;nan;100501.06;4974712;28;20038;-66
2022/05/14 00:54:23;;;;;;;4.80;3.13;;;;;;;17.81;nan;100494.69;5001460;28;20030;-66
2022/05/14 00:56:53;;;;;;;6.05;3.67;;;;;;;17.78;nan;100567.13;4991793;28;20044;-66
2022/05/14 00:59:24;;;;;;;9.40;3.80;;;;;;;17.74;nan;100523.44;4991105;28;20376;-66
2022/05/14 01:01:49;;;;;;;10.18;3.70;;;;;;;17.67;nan;100507.78;4972676;28;20397;-66
2022/05/14 01:04:15;;;;;;;6.85;3.55;;;;;;;;;;5002429;28;20117;-67
2022/05/14 01:06:44;;;;;;;8.68;3.60;;;;;;;;;;4989752;28;20373;-67
2022/05/14 01:09:10;;;;;;;17.90;4.88;;;;;;;;;;4993148;28;20042;-66
2022/05/14 01:11:37;;;;;;;6.70;3.40;;;;;;;;;;5009616;28;20468;-67
2022/05/14 01:14:03;;;;;;;4.30;3.40;;;;;;;;;;4993373;28;20615;-67
2022/05/14 01:16:29;;;;;;;7.13;3.63;;;;;;;;;;5002110;28;20037;-67
2022/05/14 01:18:54;;;;;;;7.13;3.55;;;;;;;;;;4997425;28;20033;-66
2022/05/14 01:21:20;;;;;;;6.53;3.57;;;;;;;;;;4992098;28;20595;-66
2022/05/14 01:26:36;;;;;;;8.98;3.58;;;;;;;;;;5004155;28;20049;-65
2022/05/14 01:29:04;;;;;;;10.48;3.92;;;;;;;;;;5011720;28;20128;-66
2022/05/14 01:31:30;;;;;;;11.52;4.30;;;;;;;;;;5006788;28;20153;-65
2022/05/14 01:33:58;;;;;;;10.38;3.70;;;;;;;;;;5009956;28;20125;-67
2022/05/14 01:36:24;;;;;;;4.70;3.17;;;;;;;17.47;nan;100561.81;4976367;28;20050;-67
2022/05/14 01:38:49;;;;;;;6.72;3.05;;;;;;;;;;4997570;28;20037;-66
2022/05/14 01:41:15;;;;;;;7.13;3.40;;;;;;;;;;4996731;28;20100;-67
2022/05/14 01:43:40;;;;;;;9.33;3.50;;;;;;;;;;4980383;28;20038;-66
2022/05/14 01:46:06;;;;;;;6.03;3.53;;;;;;;;;;4997429;28;20042;-67
2022/05/14 01:48:32;;;;;;;5.55;3.50;;;;;;;;;;4996142;28;20342;-67
2022/05/14 01:50:57;;;;;;;9.23;3.10;;;;;;;;;;4993135;28;20125;-67
2022/05/14 01:53:22;;;;;;;10.60;3.90;;;;;;;;;;5005489;28;20045;-67
2022/05/14 01:55:47;;;;;;;5.38;3.00;;;;;;;;;;4999343;28;20299;-66
2022/05/14 02:00:57;;;;;;;5.43;3.45;;;;;;;;;;4992664;28;20275;-68
2022/05/14 02:03:22;;;;;;;4.77;3.30;;;;;;;;;;5006122;28;20045;-66
2022/05/14 02:05:48;;;;;;;8.47;3.80;;;;;;;17.67;nan;100497.13;5003253;28;20288;-67
2022/05/14 02:08:13;;;;;;;7.53;3.85;;;;;;;;;;4992413;28;20656;-67
2022/05/14 02:10:39;;;;;;;6.78;3.97;;;;;;;;;;5006824;28;20057;-66
2022/05/14 02:13:05;;;;;;;6.82;3.95;;;;;;;;;;5005467;28;20034;-68
2022/05/14 02:15:30;;;;;;;11.53;4.50;;;;;;;;;;5003298;28;20041;-66
2022/05/14 02:17:57;;;;;;;7.00;4.40;;;;;;;;;;4991942;28;20080;-67
2022/05/14 02:20:22;;;;;;;12.30;4.43;;;;;;;;;;5003502;28;20495;-66
2022/05/14 02:22:48;;;;;;;6.05;3.90;;;;;;;;;;5014989;28;20037;-66
2022/05/14 02:25:13;;;;;;;5.20;4.23;;;;;;;;;;5016756;28;20050;-66
2022/05/14 02:27:39;;;;;;;6.82;3.80;;;;;;;;;;5002176;28;20291;-68
2022/05/14 02:30:04;;;;;;;7.37;4.00;;;;;;;17.43;nan;100495.00;5006507;28;20053;-67
2022/05/14 02:32:30;;;;;;;4.80;3.58;;;;;;;;;;5022906;28;20306;-66
2022/05/14 02:34:57;;;;;;;5.18;3.53;;;;;;;;;;5008971;28;20031;-66
2022/05/14 02:37:24;;;;;;;7.72;3.67;;;;;;;;;;4996734;28;20099;-67
2022/05/14 02:39:50;;;;;;;25.40;15.55;;;;;;;;;;5003401;28;20431;-65
2022/05/14 02:42:15;;;;;;;13.60;8.63;;;;;;;;;;5007852;28;20041;-66
2022/05/14 02:44:41;;;;;;;9.85;5.55;;;;;;;;;;4996523;28;20030;-66
2022/05/14 02:47:06;;;;;;;10.80;4.10;;;;;;;;;;4995764;28;20549;-66
2022/05/14 02:49:32;;;;;;;6.30;3.75;;;;;;;;;;5014634;28;20041;-67
2022/05/14 02:51:57;;;;;;;6.38;3.80;;;;;;;;;;4978901;28;20026;-67
2022/05/14 02:54:22;;;;;;;7.90;4.20;;;;;;;;;;4989191;28;20038;-68
2022/05/14 02:56:48;;;;;;;9.40;4.80;;;;;;;17.22;nan;100490.78;4994264;28;20288;-67
2022/05/14 02:59:13;;;;;;;7.28;4.20;;;;;;;;;;5001604;28;20042;-67
2022/05/14 03:01:47;;;;;;;6.20;4.27;;;;;;;;;;4994626;28;20488;-67
2022/05/14 03:04:13;;;;;;;7.05;4.20;;;;;;;;;;4980379;28;20371;-67
2022/05/14 03:06:38;;;;;;;6.45;4.38;;;;;;;;;;4992435;28;20133;-67
2022/05/14 03:09:04;;;;;;;8.93;4.70;;;;;;;;;;5012730;28;20396;-67
2022/05/14 03:11:31;;;;;;;9.88;4.60;;;;;;;;;;4990132;28;20030;-67
2022/05/14 03:13:56;;;;;;;7.70;4.20;;;;;;;;;;5003485;28;20072;-66
2022/05/14 03:16:22;;;;;;;6.72;4.07;;;;;;;;;;4998380;28;20042;-66
2022/05/14 03:18:47;;;;;;;11.83;4.30;;;;;;;17.29;nan;100535.75;4993843;28;20034;-67
2022/05/14 03:21:12;;;;;;;9.48;4.35;;;;;;;;;;4988750;28;20038;-66
2022/05/14 03:23:38;;;;;;;5.95;4.10;;;;;;;;;;5010611;28;20144;-67
2022/05/14 03:26:03;;;;;;;9.77;3.97;;;;;;;;;;4999381;28;20093;-66
2022/05/14 03:28:28;;;;;;;6.87;3.87;;;;;;;;;;4992672;28;20774;-65
2022/05/14 03:30:54;;;;;;;13.37;3.93;;;;;;;;;;4993538;28;20396;-67
2022/05/14 03:33:19;;;;;;;8.13;3.40;;;;;;;;;;4993510;28;20042;-66
2022/05/14 03:35:44;;;;;;;10.10;4.20;;;;;;;;;;4984006;28;20050;-66
2022/05/14 03:38:10;;;;;;;6.28;4.05;;;;;;;17.48;nan;100525.34;4980778;28;20346;-66
2022/05/14 03:40:35;;;;;;;5.35;3.75;;;;;;;;;;4991193;28;20519;-66
2022/05/14 03:43:00;;;;;;;4.80;3.90;;;;;;;;;;5004480;28;20503;-66
2022/05/14 03:45:26;;;;;;;8.45;4.13;;;;;;;;;;4996580;28;20292;-65
2022/05/14 03:47:51;;;;;;;7.90;3.87;;;;;;;;;;4992994;28;20046;-67
2022/05/14 03:50:16;;;;;;;11.23;4.20;;;;;;;;;;4993030;28;20295;-67
2022/05/14 03:52:42;;;;;;;5.88;4.18;;;;;;;;;;5000008;28;20772;-66
2022/05/14 03:55:07;;;;;;;9.85;3.90;;;;;;;;;;5000726;28;20034;-67
2022/05/14 03:57:33;;;;;;;8.07;4.40;;;;;;;;;;4996460;28;20053;-67
2022/05/14 03:59:58;;;;;;;13.43;4.20;;;;;;;;;;4990783;28;20129;-67
2022/05/14 04:02:24;;;;;;;9.88;4.28;;;;;;;;;;4991279;28;20280;-66
2022/05/14 04:04:49;;;;;;;9.43;4.32;;;;;;;17.47;nan;100537.06;4983365;28;20045;-68
2022/05/14 04:07:15;;;;;;;7.95;4.65;;;;;;;;;;4974974;28;20042;-68
2022/05/14 04:09:40;;;;;;;10.33;4.30;;;;;;;;;;4980309;28;20042;-68
2022/05/14 04:12:06;;;;;;;8.43;4.40;;;;;;;;;;4989084;28;20267;-68
2022/05/14 04:14:31;;;;;;;10.57;4.28;;;;;;;;;;4988945;28;20030;-68
2022/05/14 04:16:58;;;;;;;6.80;4.43;;;;;;;;;;4979533;28;20038;-68
2022/05/14 04:19:23;;;;;;;11.43;4.97;;;;;;;17.64;nan;100586.31;4987811;28;20359;-69
2022/05/14 04:21:49;;;;;;;15.50;7.03;;;;;;;;;;4971836;28;20377;-66
2022/05/14 04:24:14;;;;;;;12.90;7.77;;;;;;;;;;4986747;28;20140;-66
2022/05/14 04:26:40;;;;;;;9.95;5.38;;;;;;;;;;4987340;28;20057;-67
2022/05/14 04:29:05;;;;;;;11.82;5.05;;;;;;;;;;4964525;28;20049;-68
2022/05/14 04:31:31;;;;;;;8.17;4.80;;;;;;;;;;4976198;28;20412;-73
2022/05/14 04:33:57;;;;;;;10.80;5.47;;;;;;;;;;4980912;28;20480;-74
2022/05/14 04:36:23;;;;;;;10.07;5.40;;;;;;;;;;4991849;28;20049;-73
2022/05/14 04:38:49;;;;;;;7.00;4.97;;;;;;;;;;4986391;28;20031;-73
2022/05/14 04:41:14;;;;;;;9.55;5.03;;;;;;;18.10;nan;100552.69;4972920;28;20571;-73
2022/05/14 04:43:39;;;;;;;13.23;5.60;;;;;;;;;;4985882;28;20073;-71
2022/05/14 04:46:07;;;;;;;8.23;5.20;;;;;;;18.20;nan;100558.03;4973864;28;20062;-73
2022/05/14 04:48:34;;;;;;;8.93;5.82;;;;;;;18.21;nan;100539.06;4981680;28;20291;-73
2022/05/14 04:50:59;;;;;;;7.85;5.38;;;;;;;;;;4980251;28;20042;-73
2022/05/14 04:53:25;;;;;;;11.68;5.43;;;;;;;;;;4990415;28;20956;-74
2022/05/14 04:55:50;;;;;;;9.15;5.60;;;;;;;;;;4979927;28;20185;-74
2022/05/14 04:58:15;;;;;;;16.52;5.80;;;;;;;18.45;nan;100547.25;4985125;28;20124;-74
2022/05/14 05:00:41;;;;;;;10.07;5.40;;;;;;;;;;4976818;28;20046;-74
2022/05/14 05:03:22;;;;;;;7.28;5.18;;;;;;;18.52;nan;100549.63;4991446;28;20116;-74
2022/05/14 05:05:51;;;;;;;9.90;6.05;;;;;;;18.71;nan;100568.47;4991680;28;20073;-75
2022/05/14 05:08:17;;;;;;;8.02;5.75;;;;;;;18.76;nan;100611.16;4990143;28;20038;-75
2022/05/14 05:10:43;;;;;;;11.73;6.63;;;;;;;18.79;nan;100541.22;4991717;28;20080;-75
2022/05/14 05:13:14;;;;;;;10.30;5.90;;;;;;;18.85;nan;100564.13;4997348;28;20054;-75
2022/05/14 05:15:40;;;;;;;12.35;6.80;;;;;;;18.87;nan;100566.53;4991101;28;20046;-76
2022/05/14 05:18:06;;;;;;;15.65;7.10;;;;;;;;;;4991789;28;20101;-74
2022/05/14 05:20:33;;;;;;;12.90;6.65;;;;;;;18.96;nan;100562.19;4991397;28;20062;-75
2022/05/14 05:22:58;;;;;;;11.27;6.60;;;;;;;19.03;nan;100580.56;4991698;28;20027;-75
2022/05/14 05:25:24;;;;;;;12.23;6.38;;;;;;;19.07;nan;100561.06;4990020;28;20118;-74
2022/05/14 05:27:49;;;;;;;9.40;6.20;;;;;;;19.10;nan;100552.50;4990682;28;20046;-74
2022/05/14 05:30:15;;;;;;;9.68;6.40;;;;;;;;;;4974934;28;20117;-73
2022/05/14 05:32:41;;;;;;;12.10;6.57;;;;;;;19.22;nan;100562.03;5004518;28;20065;-76
2022/05/14 05:35:07;;;;;;;11.38;6.78;;;;;;;19.25;nan;100550.78;4997070;28;20511;-74
2022/05/14 05:37:33;;;;;;;11.35;6.90;;;;;;;19.38;nan;100511.97;4985868;28;20038;-74
2022/05/14 05:39:58;;;;;;;10.32;6.28;;;;;;;19.47;nan;100561.03;4984278;28;20041;-74
2022/05/14 05:42:24;;;;;;;10.93;6.80;;;;;;;19.54;nan;100558.84;4988142;28;20034;-73
2022/05/14 05:44:49;;;;;;;8.77;5.93;;;;;;;19.59;nan;100558.00;4980970;28;20448;-73
2022/05/14 05:47:15;;;;;;;9.52;6.03;;;;;;;19.60;nan;100522.97;4988390;28;20038;-73
2022/05/14 05:49:42;;;;;;;12.07;6.20;;;;;;;19.73;nan;100556.31;4978147;28;20046;-72
2022/05/14 05:52:08;;;;;;;16.20;5.90;;;;;;;19.75;nan;100543.44;4970599;28;20066;-68
2022/05/14 05:57:18;;;;;;;9.73;6.03;;;;;;;19.92;nan;100551.00;4990087;28;20404;-69
2022/05/14 05:59:43;;;;;;;7.95;5.68;;;;;;;;;;4972468;28;20042;-70
2022/05/14 06:02:09;;;;;;;9.50;5.82;;;;;;;20.11;nan;100575.94;4974227;28;20035;-70
2022/05/14 06:04:35;;;;;;;8.93;5.50;;;;;;;20.17;nan;100572.13;4983977;28;20053;-69
2022/05/14 06:07:00;;;;;;;7.90;5.20;;;;;;;20.23;nan;100558.69;4990231;28;20514;-69
2022/05/14 06:09:26;;;;;;;10.00;5.72;;;;;;;20.38;nan;100577.25;4990914;28;20035;-69
2022/05/14 06:11:52;;;;;;;9.68;6.82;;;;;;;20.38;nan;100582.59;4997035;28;20042;-70
2022/05/14 06:14:18;;;;;;;9.98;6.57;;;;;;;;;;4993948;28;20480;-70
2022/05/14 06:16:43;;;;;;;9.77;6.72;;;;;;;20.41;nan;100560.63;4984452;28;20128;-70
2022/05/14 06:19:10;;;;;;;8.52;6.05;;;;;;;20.50;nan;100561.59;4995436;28;20452;-69
2022/05/14 06:21:37;;;;;;;10.52;6.38;;;;;;;20.57;nan;100563.94;4994247;28;20050;-70
2022/05/14 06:24:04;;;;;;;9.98;6.22;;;;;;;20.60;nan;100576.72;4994494;28;20118;-70
2022/05/14 06:26:29;;;;;;;11.18;6.15;;;;;;;20.60;nan;100574.84;4986167;28;20045;-69
2022/05/14 06:28:55;;;;;;;7.70;5.93;;;;;;;20.66;nan;100583.59;5012981;28;20039;-69
2022/05/14 06:31:20;;;;;;;10.70;5.20;;;;;;;20.71;nan;100583.56;5002945;28;20042;-68
2022/05/14 06:33:47;;;;;;;8.05;5.43;;;;;;;20.77;nan;100594.97;5026744;28;20037;-70
2022/05/14 06:36:14;;;;;;;14.30;6.50;;;;;;;20.85;nan;100602.34;5012362;28;20068;-71
2022/05/14 06:38:40;;;;;;;13.50;7.82;;;;;;;;;;5017325;28;20027;-72
2022/05/14 06:41:11;;;;;;;14.48;7.90;;;;;;;20.92;nan;100565.31;5017329;28;20049;-70
2022/05/14 06:43:37;;;;;;;8.65;5.82;;;;;;;;;;4999871;28;20038;-71
2022/05/14 06:46:03;;;;;;;10.27;6.22;;;;;;;21.14;nan;100583.47;4996016;28;20038;-71
2022/05/14 06:48:29;;;;;;;10.38;6.63;;;;;;;21.19;nan;100591.44;4982606;28;20046;-70
2022/05/14 06:50:58;;;;;;;8.38;6.22;;;;;;;21.22;nan;100587.38;4996602;28;20050;-71
2022/05/14 06:53:24;;;;;;;10.52;6.35;;;;;;;21.16;nan;100592.00;4981711;28;20074;-70
2022/05/14 06:55:53;;;;;;;10.95;6.18;;;;;;;21.16;nan;100593.88;4996860;28;20069;-71
2022/05/14 06:58:25;;;;;;;9.98;5.85;;;;;;;21.24;nan;100615.47;4996020;28;20049;-71
2022/05/14 07:00:50;;;;;;;9.02;5.95;;;;;;;21.32;nan;100587.22;4994913;28;20034;-69
2022/05/14 07:08:43;;;;;;;11.98;6.57;;;;;;;21.42;nan;100562.97;4991972;28;20038;-70
2022/05/14 07:11:10;;;;;;;10.45;5.93;;;;;;;21.49;nan;100669.75;4994592;28;20038;-69
2022/05/14 07:13:36;;;;;;;12.30;6.50;;;;;;;21.57;nan;100591.41;4989059;28;20065;-74
2022/05/14 07:16:01;;;;;;;14.93;7.30;;;;;;;21.66;nan;100591.50;4973730;28;20488;-73
2022/05/14 07:18:27;;;;;;;12.48;6.22;;;;;;;21.73;nan;100604.53;4990712;28;20081;-72
2022/05/14 07:20:52;;;;;;;10.30;6.35;;;;;;;21.69;nan;100649.88;4981738;28;20038;-72
2022/05/14 07:23:17;;;;;;;11.18;6.28;;;;;;;21.78;nan;100640.06;4983397;28;20873;-71
2022/05/14 07:25:43;;;;;;;11.00;6.68;;;;;;;;;;4980465;28;20065;-73
2022/05/14 07:28:08;;;;;;;12.37;6.90;;;;;;;21.98;nan;100606.78;4974862;28;20131;-71
2022/05/14 07:30:35;;;;;;;13.43;7.63;;;;;;;22.05;nan;100609.84;4992258;28;20303;-71
2022/05/14 07:33:01;;;;;;;12.48;6.82;;;;;;;22.07;nan;100617.59;4990026;28;20073;-69
2022/05/14 07:35:27;;;;;;;14.48;7.53;;;;;;;22.08;nan;100675.50;4992052;28;20042;-69
2022/05/14 07:37:56;;;;;;;15.10;6.72;;;;;;;22.14;nan;100552.84;4983606;28;20109;-69
2022/05/14 07:40:26;;;;;;;27.20;8.43;;;;;;;22.22;nan;100595.06;4993867;28;20562;-69
2022/05/14 07:43:28;;;;;;;12.38;6.72;;;;;;;22.32;nan;100624.41;4979088;28;20038;-68
2022/05/14 07:45:55;;;;;;;20.00;7.60;;;;;;;;;;4962733;28;20047;-69
2022/05/14 07:48:27;;;;;;;11.05;6.57;;;;;;;22.30;nan;100608.59;4992637;28;20519;-68
2022/05/14 07:50:53;;;;;;;10.43;6.28;;;;;;;22.35;nan;100625.69;4992606;28;20038;-70
2022/05/14 07:53:20;;;;;;;11.05;7.10;;;;;;;22.38;nan;100620.50;4992063;28;20046;-68
2022/05/14 07:55:45;;;;;;;10.07;7.10;;;;;;;22.40;nan;100634.44;4974760;28;20034;-70
2022/05/14 07:58:12;;;;;;;12.65;7.20;;;;;;;22.39;nan;100624.81;4992375;28;20052;-68
2022/05/14 08:00:38;;;;;;;10.23;6.97;;;;;;;22.40;nan;100628.28;4993008;28;20149;-69
2022/05/14 08:03:04;;;;;;;8.48;6.82;;;;;;;22.42;nan;100589.31;4988392;28;20443;-67
2022/05/14 08:05:29;;;;;;;13.52;7.22;;;;;;;22.38;nan;100630.44;4992831;28;20030;-67
2022/05/14 08:07:55;;;;;;;12.35;6.38;;;;;;;22.43;nan;100623.09;4992924;28;20022;-67
2022/05/14 08:10:21;;;;;;;11.60;7.20;;;;;;;22.47;nan;100628.66;4994273;28;20049;-67
2022/05/14 08:12:51;;;;;;;8.93;6.75;;;;;;;22.48;nan;100624.88;4995360;28;20404;-67
2022/05/14 08:15:18;;;;;;;13.35;6.72;;;;;;;22.53;nan;100616.75;4991624;28;20034;-69
2022/05/14 08:17:45;;;;;;;10.38;7.25;;;;;;;22.59;nan;100628.16;4974715;28;20125;-68
2022/05/14 08:20:12;;;;;;;11.15;6.53;;;;;;;22.65;nan;100624.25;4992905;28;20384;-67
2022/05/14 08:25:21;;;;;;;11.88;6.80;;;;;;;22.66;nan;100626.66;4991522;28;20105;-72
2022/05/14 08:27:47;;;;;;;7.65;6.13;;;;;;;22.69;nan;100636.78;4992626;28;20441;-73
2022/05/14 08:30:19;;;;;;;10.20;6.03;;;;;;;22.77;nan;100664.03;4987747;28;20037;-71
2022/05/14 08:32:44;;;;;;;10.07;6.05;;;;;;;22.87;nan;100639.66;4992861;28;20042;-72
2022/05/14 08:35:11;;;;;;;9.30;6.28;;;;;;;22.94;nan;100623.94;4986308;28;20057;-72
2022/05/14 08:37:37;;;;;;;8.27;6.15;;;;;;;23.06;nan;100647.63;4975282;28;20112;-72
2022/05/14 08:40:13;;;;;;;8.55;6.10;;;;;;;23.12;nan;100623.00;4987526;28;20031;-72
2022/05/14 08:42:39;;;;;;;11.48;6.68;;;;;;;23.09;nan;100690.78;4985401;28;20030;-71
2022/05/14 08:45:05;;;;;;;10.55;6.03;;;;;;;23.22;nan;100648.84;4990319;28;20045;-72
2022/05/14 08:47:35;;;;;;;9.77;6.20;;;;;;;23.33;nan;100638.66;4988284;28;20084;-72
2022/05/14 08:50:03;;;;;;;11.18;5.80;;;;;;;23.36;nan;100638.03;4985455;28;20041;-72
2022/05/14 08:52:29;;;;;;;7.20;5.50;;;;;;;23.46;nan;100602.84;4977098;28;20484;-73
2022/05/14 08:55:00;;;;;;;7.72;5.65;;;;;;;23.55;nan;100630.59;4989546;28;20065;-72
2022/05/14 08:57:40;;;;;;;9.30;5.40;;;;;;;23.61;nan;100635.84;4990740;28;20480;-70
2022/05/14 09:00:07;;;;;;;9.65;5.30;;;;;;;23.59;nan;100600.41;4989663;28;20043;-67
2022/05/14 09:02:42;;;;;;;8.98;5.70;;;;;;;23.50;nan;100633.41;4973288;28;20428;-67
2022/05/14 09:05:12;;;;;;;13.90;5.70;;;;;;;23.44;nan;100626.56;5005966;28;20431;-67
2022/05/14 09:07:38;;;;;;;11.45;5.68;;;;;;;23.53;nan;100645.44;4991454;28;20370;-67
2022/05/14 09:10:08;;;;;;;7.25;4.93;;;;;;;23.60;nan;100624.28;4980079;28;20038;-68
2022/05/14 09:12:36;;;;;;;9.93;6.05;;;;;;;23.51;nan;100635.00;4999562;28;20104;-68
2022/05/14 09:15:14;;;;;;;9.27;5.80;;;;;;;23.43;nan;100699.44;4991816;28;20065;-71
2022/05/14 09:17:39;;;;;;;8.40;5.15;;;;;;;23.51;nan;100639.56;4991238;28;20034;-67
2022/05/14 09:20:06;;;;;;;8.75;5.15;;;;;;;23.62;nan;100597.13;4981577;28;20027;-68
2022/05/14 09:22:34;;;;;;;10.98;5.10;;;;;;;;;;4987557;28;20046;-67
2022/05/14 09:24:59;;;;;;;10.50;6.40;;;;;;;;;;4973682;28;20512;-67
2022/05/14 09:27:26;;;;;;;9.33;6.03;;;;;;;23.47;nan;100641.28;4987885;28;20035;-68
2022/05/14 09:30:00;;;;;;;11.38;5.63;;;;;;;23.53;nan;100659.66;4984877;28;20046;-67
2022/05/14 09:32:41;;;;;;;13.15;6.30;;;;;;;23.62;nan;100634.75;4984910;28;20037;-68
2022/05/14 09:35:26;;;;;;;8.65;5.28;;;;;;;23.70;nan;100652.81;4988510;28;20065;-68
2022/05/14 09:38:07;;;;;;;5.65;4.68;;;;;;;23.78;nan;100625.22;4984550;28;20034;-68
2022/05/14 09:40:33;;;;;;;8.38;5.35;;;;;;;23.89;nan;100639.97;4987261;28;20033;-68
2022/05/14 09:43:17;;;;;;;9.23;5.25;;;;;;;23.92;nan;100639.38;4991028;28;20034;-69
2022/05/14 09:46:22;;;;;;;4.95;4.25;;;;;;;23.96;nan;100618.81;4982907;28;20137;-68
2022/05/14 09:48:51;;;;;;;9.50;4.95;;;;;;;24.11;nan;100646.41;4993201;28;20069;-69
2022/05/14 09:52:04;;;;;;;7.75;4.88;;;;;;;24.02;nan;100622.19;4988398;28;20064;-68
2022/05/14 09:54:38;;;;;;;10.10;4.53;;;;;;;24.29;nan;100633.84;4971944;28;20045;-69
2022/05/14 09:57:06;;;;;;;7.28;4.80;;;;;;;24.47;nan;100653.56;4970384;28;20050;-69
2022/05/14 09:59:49;;;;;;;7.43;4.90;;;;;;;24.41;nan;100626.75;4973219;28;20441;-69
2022/05/14 10:02:22;;;;;;;8.55;4.30;;;;;;;24.40;nan;100637.84;4971163;28;20041;-69
2022/05/14 10:04:57;;;;;;;7.40;4.30;;;;;;;24.53;nan;100639.63;4954833;28;20057;-69
2022/05/14 10:07:35;;;;;;;6.35;3.95;;;;;;;24.61;nan;100617.34;4973197;28;20039;-69
2022/05/14 10:10:26;;;;;;;4.38;3.35;;;;;;;24.76;nan;100640.34;4966018;28;20117;-68
2022/05/14 10:13:32;;;;;;;14.15;4.22;;;;;;;24.78;nan;100635.44;4983695;28;20429;-70
2022/05/14 10:16:07;;;;;;;6.30;3.70;;;;;;;24.67;nan;100625.28;4955964;28;20042;-69
2022/05/14 10:19:09;;;;;;;4.88;3.60;;;;;;;24.55;nan;100631.25;4972645;28;20070;-68
2022/05/14 10:22:15;;;;;;;5.15;3.72;;;;;;;24.50;nan;100634.88;4964332;28;20043;-67
2022/05/14 10:27:59;;;;;;;6.68;3.33;;;;;;;24.52;nan;100621.09;4972467;28;20126;-67
2022/05/14 10:30:31;;;;;;;4.78;3.50;;;;;;;24.66;nan;100621.75;4974997;28;20034;-68
2022/05/14 10:33:07;;;;;;;3.78;3.20;;;;;;;24.82;nan;100624.81;4982671;28;20045;-69
2022/05/14 10:35:52;;;;;;;5.88;2.95;;;;;;;24.84;nan;100625.28;4990503;28;20061;-69
2022/05/14 10:38:24;;;;;;;7.85;3.40;;;;;;;24.70;nan;100625.41;4994607;28;20084;-70
2022/05/14 10:40:56;;;;;;;4.50;2.55;;;;;;;24.77;nan;100614.97;4994333;28;20034;-73
2022/05/14 10:43:49;;;;;;;7.43;3.40;;;;;;;24.86;nan;100638.44;4978844;28;20042;-73
2022/05/14 10:46:21;;;;;;;4.28;2.78;;;;;;;25.03;nan;100624.97;4988113;28;20742;-73
2022/05/14 10:48:55;;;;;;;4.22;2.80;;;;;;;25.13;nan;100621.97;4975299;28;20042;-73
2022/05/14 10:51:27;;;;;;;6.25;3.17;;;;;;;25.17;nan;100630.22;4991127;28;20034;-73
2022/05/14 10:53:53;;;;;;;7.95;2.72;;;;;;;24.92;nan;100604.84;4993520;28;20102;-73
2022/05/14 10:56:27;;;;;;;6.38;2.60;;;;;;;;;;4993953;28;20562;-72
2022/05/14 10:59:11;;;;;;;7.10;3.10;;;;;;;24.86;nan;100622.28;4965500;28;20034;-70
2022/05/14 11:01:51;;;;;;;7.22;3.10;;;;;;;24.88;nan;100628.13;4982522;28;20086;-71
2022/05/14 11:04:25;;;;;;;4.82;3.17;;;;;;;24.96;nan;100624.66;4988606;28;20480;-68
2022/05/14 11:07:14;;;;;;;5.18;2.90;;;;;;;25.04;nan;100621.16;4987002;28;20034;-69
2022/05/14 11:09:49;;;;;;;5.68;2.28;;;;;;;25.08;nan;100624.81;4984446;28;20407;-71
2022/05/14 11:12:18;;;;;;;8.40;2.42;;;;;;;24.95;nan;100631.16;4987729;28;20096;-72
2022/05/14 11:14:49;;;;;;;6.32;2.35;;;;;;;24.97;nan;100613.59;4995132;28;20042;-71
2022/05/14 11:17:25;;;;;;;3.05;2.50;;;;;;;24.95;nan;100658.09;4977129;28;20038;-70
2022/05/14 11:20:04;;;;;;;4.40;2.63;;;;;;;25.06;nan;100632.44;4974862;28;20041;-69
2022/05/14 11:22:52;;;;;;;4.90;2.50;;;;;;;24.96;nan;100621.97;5003989;28;20045;-73
2022/05/14 11:25:20;;;;;;;4.07;2.45;;;;;;;25.05;nan;100612.78;4975797;28;20038;-71
2022/05/14 11:27:59;;;;;;;5.00;3.00;;;;;;;25.12;nan;100588.06;4977459;28;20373;-71
2022/05/14 11:30:34;;;;;;;7.13;3.13;;;;;;;25.27;nan;100639.91;4994512;28;20117;-73
2022/05/14 11:33:01;;;;;;;11.38;2.80;;;;;;;25.21;nan;100612.31;5005882;28;20034;-74
2022/05/14 11:35:41;;;;;;;9.30;2.65;;;;;;;25.04;nan;100554.63;4977349;28;20041;-70
2022/05/14 11:38:36;;;;;;;8.20;2.90;;;;;;;24.93;nan;100590.28;4992375;28;20037;-74
2022/05/14 11:41:08;;;;;;;6.53;2.53;;;;;;;24.91;nan;100635.59;4990644;28;20136;-74
2022/05/14 11:43:43;;;;;;;5.43;2.42;;;;;;;25.02;nan;100618.81;4973119;28;20039;-74
2022/05/14 11:46:33;;;;;;;8.45;2.80;;;;;;;25.18;nan;100616.44;4986272;28;20500;-74
2022/05/14 11:49:32;;;;;;;5.03;2.28;;;;;;;25.28;nan;100623.41;4991714;28;20034;-74
2022/05/14 11:52:23;;;;;;;11.55;3.17;;;;;;;25.18;nan;100597.56;4997379;28;20571;-74
2022/05/14 11:55:10;;;;;;;3.53;2.78;;;;;;;25.01;nan;100636.06;5012790;28;20030;-75
2022/05/14 11:57:42;;;;;;;7.38;2.55;;;;;;;25.06;nan;100648.59;5009190;28;20057;-74
2022/05/14 12:00:10;;;;;;;4.95;2.58;;;;;;;25.13;nan;100615.78;5012807;28;20046;-74
2022/05/14 12:03:00;;;;;;;4.65;2.97;;;;;;;25.18;nan;100656.09;5005348;28;20038;-74
2022/05/14 12:05:31;;;;;;;9.73;2.65;;;;;;;25.02;nan;100588.34;5008430;28;20023;-73
2022/05/14 12:08:36;;;;;;;8.15;3.13;;;;;;;24.89;nan;100606.28;5005638;28;20031;-75
2022/05/14 12:11:20;;;;;;;5.13;2.35;;;;;;;25.00;nan;100588.69;5013996;28;20046;-74
2022/05/14 12:14:29;;;;;;;11.80;2.33;;;;;;;25.18;nan;100578.72;5010139;28;20042;-74
2022/05/14 12:16:57;;;;;;;8.60;2.50;;;;;;;25.20;nan;100633.09;4994482;28;20042;-74
2022/05/14 12:19:29;;;;;;;7.15;2.40;;;;;;;25.35;nan;100591.38;5002344;28;20656;-73
2022/05/14 12:22:01;;;;;;;7.55;2.53;;;;;;;25.17;nan;100592.50;4997964;28;20041;-74
2022/05/14 12:24:41;;;;;;;5.38;2.47;;;;;;;25.15;nan;100581.22;4996166;28;20042;-74
2022/05/14 12:27:18;;;;;;;3.63;2.60;;;;;;;25.09;nan;100583.28;4990878;28;20062;-73
2022/05/14 12:29:53;;;;;;;7.05;2.80;;;;;;;25.03;nan;100606.91;4995284;28;20034;-74
2022/05/14 12:35:14;;;;;;;9.57;2.67;;;;;;;25.34;nan;100578.22;4989809;28;20034;-73
2022/05/14 12:37:42;;;;;;;4.70;2.05;;;;;;;25.27;nan;100564.44;4990352;28;20121;-72
2022/05/14 12:40:17;;;;;;;3.90;2.15;;;;;;;25.25;nan;100500.06;4970540;28;20096;-72
2022/05/14 12:42:44;;;;;;;5.25;2.08;;;;;;;25.28;nan;100560.63;4986317;28;20050;-71
2022/05/14 12:45:11;;;;;;;4.10;2.20;;;;;;;25.35;nan;100577.91;4989623;28;20023;-70
2022/05/14 12:47:40;;;;;;;5.38;2.38;;;;;;;25.43;nan;100604.06;4990793;28;20469;-71
2022/05/14 12:50:22;;;;;;;6.38;2.58;;;;;;;25.65;nan;100578.78;4971661;28;20053;-70
2022/05/14 12:52:57;;;;;;;6.57;2.67;;;;;;;25.70;nan;100558.16;4960561;28;20030;-70
2022/05/14 12:55:24;;;;;;;3.92;2.20;;;;;;;25.76;nan;100556.84;4989904;28;20121;-73
2022/05/14 12:57:50;;;;;;;5.25;1.65;;;;;;;25.73;nan;100558.28;4990115;28;20065;-70
2022/05/14 13:00:17;;;;;;;6.05;1.80;;;;;;;25.72;nan;100547.84;4991100;28;20062;-74
2022/05/14 13:02:49;;;;;;;5.18;1.85;;;;;;;25.76;nan;100554.16;4991150;28;20034;-71
2022/05/14 13:05:32;;;;;;;3.40;1.80;;;;;;;25.88;nan;100600.16;4975247;28;20066;-72